sensor_id;sensor_type;location;lat;lon;timestamp;pressure;altitude;pressure_sealevel;temperature;humidity
70690;BME280;58267;51.156;17.044;2022-12-18T00:00:45;101926.94;;;-2.02;43.20
70690;BME280;58267;51.156;17.044;2022-12-18T00:03:09;101933.22;;;-1.85;42.61
70690;BME280;58267;51.156;17.044;2022-12-18T00:05:34;101932.53;;;-1.78;42.43
70690;BME280;58267;51.156;17.044;2022-12-18T00:08:00;101933.21;;;-1.94;42.10
70690;BME280;58267;51.156;17.044;2022-12-18T00:10:27;101934.92;;;-1.76;42.24
70690;BME280;58267;51.156;17.044;2022-12-18T00:12:51;101939.39;;;-2.50;43.48
70690;BME280;58267;51.156;17.044;2022-12-18T00:15:16;101942.56;;;-2.90;44.25
70690;BME280;58267;51.156;17.044;2022-12-18T00:17:42;101944.30;;;-2.61;43.78
70690;BME280;58267;51.156;17.044;2022-12-18T00:20:09;101949.25;;;-2.27;43.30
70690;BME280;58267;51.156;17.044;2022-12-18T00:22:33;101950.16;;;-2.50;43.57
70690;BME280;58267;51.156;17.044;2022-12-18T00:24:58;101948.73;;;-2.54;44.06
70690;BME280;58267;51.156;17.044;2022-12-18T00:27:23;101949.64;;;-2.36;43.54
70690;BME280;58267;51.156;17.044;2022-12-18T00:29:49;101947.99;;;-2.89;44.89
70690;BME280;58267;51.156;17.044;2022-12-18T00:32:15;101947.86;;;-2.78;44.74
70690;BME280;58267;51.156;17.044;2022-12-18T00:34:41;101953.16;;;-2.23;43.86
70690;BME280;58267;51.156;17.044;2022-12-18T00:37:07;101957.11;;;-1.88;42.93
70690;BME280;58267;51.156;17.044;2022-12-18T00:39:32;101960.23;;;-2.18;42.85
70690;BME280;58267;51.156;17.044;2022-12-18T00:41:58;101965.72;;;-2.32;43.49
70690;BME280;58267;51.156;17.044;2022-12-18T00:44:23;101969.35;;;-2.20;43.42
70690;BME280;58267;51.156;17.044;2022-12-18T00:46:48;101970.54;;;-1.90;42.60
70690;BME280;58267;51.156;17.044;2022-12-18T00:49:14;101969.61;;;-1.61;42.51
70690;BME280;58267;51.156;17.044;2022-12-18T00:51:39;101970.77;;;-1.37;42.02
70690;BME280;58267;51.156;17.044;2022-12-18T00:54:05;101979.00;;;-1.55;41.88
70690;BME280;58267;51.156;17.044;2022-12-18T00:56:30;101984.66;;;-1.59;41.79
70690;BME280;58267;51.156;17.044;2022-12-18T00:58:56;101993.68;;;-2.35;42.42
70690;BME280;58267;51.156;17.044;2022-12-18T01:01:21;101996.75;;;-1.82;42.45
70690;BME280;58267;51.156;17.044;2022-12-18T01:03:47;102000.37;;;-1.77;42.61
70690;BME280;58267;51.156;17.044;2022-12-18T01:06:13;101998.37;;;-1.75;42.06
70690;BME280;58267;51.156;17.044;2022-12-18T01:08:38;102001.66;;;-1.86;41.93
70690;BME280;58267;51.156;17.044;2022-12-18T01:11:08;102003.79;;;-1.23;41.37
70690;BME280;58267;51.156;17.044;2022-12-18T01:13:28;102007.80;;;-1.45;41.30
70690;BME280;58267;51.156;17.044;2022-12-18T01:15:53;102010.51;;;-1.66;41.57
70690;BME280;58267;51.156;17.044;2022-12-18T01:18:19;102019.05;;;-1.72;41.61
70690;BME280;58267;51.156;17.044;2022-12-18T01:20:44;102016.97;;;-1.72;42.48
70690;BME280;58267;51.156;17.044;2022-12-18T01:23:14;102020.91;;;-1.91;42.63
70690;BME280;58267;51.156;17.044;2022-12-18T01:25:39;102027.68;;;-2.05;42.78
70690;BME280;58267;51.156;17.044;2022-12-18T01:28:04;102027.99;;;-1.83;42.42
70690;BME280;58267;51.156;17.044;2022-12-18T01:30:30;102026.39;;;-1.78;42.01
70690;BME280;58267;51.156;17.044;2022-12-18T01:32:55;102029.22;;;-1.81;42.37
70690;BME280;58267;51.156;17.044;2022-12-18T01:35:20;102029.78;;;-1.97;43.12
70690;BME280;58267;51.156;17.044;2022-12-18T01:37:45;102030.77;;;-1.70;42.02
70690;BME280;58267;51.156;17.044;2022-12-18T01:40:11;102031.77;;;-2.11;42.87
70690;BME280;58267;51.156;17.044;2022-12-18T01:42:36;102031.32;;;-1.32;42.08
70690;BME280;58267;51.156;17.044;2022-12-18T01:45:08;102033.72;;;-1.82;42.82
70690;BME280;58267;51.156;17.044;2022-12-18T01:47:33;102034.29;;;-1.71;42.47
70690;BME280;58267;51.156;17.044;2022-12-18T01:49:55;102035.12;;;-1.38;42.20
70690;BME280;58267;51.156;17.044;2022-12-18T01:52:20;102034.19;;;-1.63;41.88
70690;BME280;58267;51.156;17.044;2022-12-18T01:54:46;102038.16;;;-1.98;43.03
70690;BME280;58267;51.156;17.044;2022-12-18T01:57:11;102043.71;;;-2.40;43.78
70690;BME280;58267;51.156;17.044;2022-12-18T01:59:37;102047.53;;;-1.77;43.17
70690;BME280;58267;51.156;17.044;2022-12-18T02:02:02;102050.32;;;-1.57;42.77
70690;BME280;58267;51.156;17.044;2022-12-18T02:04:27;102045.55;;;-1.83;42.43
70690;BME280;58267;51.156;17.044;2022-12-18T02:06:55;102039.68;;;-1.17;41.81
70690;BME280;58267;51.156;17.044;2022-12-18T02:09:20;102043.96;;;-2.15;42.87
70690;BME280;58267;51.156;17.044;2022-12-18T02:11:46;102041.72;;;-1.63;42.55
70690;BME280;58267;51.156;17.044;2022-12-18T02:14:18;102040.97;;;-1.99;42.76
70690;BME280;58267;51.156;17.044;2022-12-18T02:16:38;102039.25;;;-1.55;42.17
70690;BME280;58267;51.156;17.044;2022-12-18T02:19:05;102046.49;;;-1.91;42.29
70690;BME280;58267;51.156;17.044;2022-12-18T02:21:32;102049.18;;;-1.80;42.43
70690;BME280;58267;51.156;17.044;2022-12-18T02:23:56;102048.84;;;-1.69;42.01
70690;BME280;58267;51.156;17.044;2022-12-18T02:26:18;102053.03;;;-1.48;41.71
70690;BME280;58267;51.156;17.044;2022-12-18T02:28:44;102057.76;;;-1.81;42.36
70690;BME280;58267;51.156;17.044;2022-12-18T02:31:11;102055.84;;;-1.78;42.26
70690;BME280;58267;51.156;17.044;2022-12-18T02:33:33;102057.71;;;-1.08;41.15
70690;BME280;58267;51.156;17.044;2022-12-18T02:35:58;102063.60;;;-1.10;40.97
70690;BME280;58267;51.156;17.044;2022-12-18T02:38:23;102067.23;;;-1.17;40.90
70690;BME280;58267;51.156;17.044;2022-12-18T02:40:50;102071.85;;;-1.73;41.92
70690;BME280;58267;51.156;17.044;2022-12-18T02:43:15;102072.21;;;-2.10;42.54
70690;BME280;58267;51.156;17.044;2022-12-18T02:45:48;102075.30;;;-2.20;42.83
70690;BME280;58267;51.156;17.044;2022-12-18T02:48:05;102073.07;;;-1.33;41.52
70690;BME280;58267;51.156;17.044;2022-12-18T02:50:33;102066.03;;;-0.99;41.09
70690;BME280;58267;51.156;17.044;2022-12-18T02:53:03;102066.30;;;-1.67;42.09
70690;BME280;58267;51.156;17.044;2022-12-18T02:55:29;102070.30;;;-1.93;42.15
70690;BME280;58267;51.156;17.044;2022-12-18T02:57:50;102072.43;;;-2.46;43.46
70690;BME280;58267;51.156;17.044;2022-12-18T03:00:15;102071.81;;;-1.57;41.99
70690;BME280;58267;51.156;17.044;2022-12-18T03:02:41;102072.45;;;-2.17;42.86
70690;BME280;58267;51.156;17.044;2022-12-18T03:05:10;102074.73;;;-2.16;42.79
70690;BME280;58267;51.156;17.044;2022-12-18T03:07:35;102075.76;;;-2.10;43.22
70690;BME280;58267;51.156;17.044;2022-12-18T03:09:55;102073.11;;;-1.99;43.28
70690;BME280;58267;51.156;17.044;2022-12-18T03:12:23;102071.52;;;-2.14;43.04
70690;BME280;58267;51.156;17.044;2022-12-18T03:14:45;102073.30;;;-1.87;42.97
70690;BME280;58267;51.156;17.044;2022-12-18T03:17:12;102076.14;;;-1.93;42.80
70690;BME280;58267;51.156;17.044;2022-12-18T03:19:36;102083.01;;;-1.44;41.56
70690;BME280;58267;51.156;17.044;2022-12-18T03:22:04;102089.15;;;-1.45;41.71
70690;BME280;58267;51.156;17.044;2022-12-18T03:24:28;102090.21;;;-1.01;40.91
70690;BME280;58267;51.156;17.044;2022-12-18T03:26:54;102090.65;;;-0.69;40.53
70690;BME280;58267;51.156;17.044;2022-12-18T03:29:21;102085.08;;;-0.53;40.27
70690;BME280;58267;51.156;17.044;2022-12-18T03:31:47;102083.00;;;-0.61;40.13
70690;BME280;58267;51.156;17.044;2022-12-18T03:34:14;102085.34;;;-0.45;39.88
70690;BME280;58267;51.156;17.044;2022-12-18T03:36:34;102086.86;;;-0.32;39.59
70690;BME280;58267;51.156;17.044;2022-12-18T03:38:59;102090.85;;;0.01;39.42
70690;BME280;58267;51.156;17.044;2022-12-18T03:41:29;102092.77;;;-0.40;39.66
70690;BME280;58267;51.156;17.044;2022-12-18T03:43:54;102093.12;;;-0.57;39.57
70690;BME280;58267;51.156;17.044;2022-12-18T03:46:24;102092.41;;;-0.85;39.56
70690;BME280;58267;51.156;17.044;2022-12-18T03:48:44;102096.66;;;-0.39;39.05
70690;BME280;58267;51.156;17.044;2022-12-18T03:51:11;102095.03;;;0.09;38.55
70690;BME280;58267;51.156;17.044;2022-12-18T03:53:36;102098.25;;;-0.27;38.75
70690;BME280;58267;51.156;17.044;2022-12-18T03:56:00;102101.52;;;0.02;38.62
70690;BME280;58267;51.156;17.044;2022-12-18T03:58:24;102106.11;;;-0.18;38.51
70690;BME280;58267;51.156;17.044;2022-12-18T04:00:51;102105.87;;;-0.19;38.60
70690;BME280;58267;51.156;17.044;2022-12-18T04:03:15;102114.76;;;-0.16;38.62
70690;BME280;58267;51.156;17.044;2022-12-18T04:05:43;102114.78;;;-0.21;38.49
70690;BME280;58267;51.156;17.044;2022-12-18T04:08:07;102114.61;;;-0.30;38.75
70690;BME280;58267;51.156;17.044;2022-12-18T04:10:33;102113.77;;;-0.09;38.90
70690;BME280;58267;51.156;17.044;2022-12-18T04:12:59;102113.06;;;-0.22;38.91
70690;BME280;58267;51.156;17.044;2022-12-18T04:15:24;102115.32;;;-0.51;39.07
70690;BME280;58267;51.156;17.044;2022-12-18T04:17:50;102115.87;;;-1.25;40.05
70690;BME280;58267;51.156;17.044;2022-12-18T04:20:16;102121.56;;;-0.52;39.84
70690;BME280;58267;51.156;17.044;2022-12-18T04:22:41;102124.03;;;-0.55;39.86
70690;BME280;58267;51.156;17.044;2022-12-18T04:25:06;102126.55;;;-0.68;39.52
70690;BME280;58267;51.156;17.044;2022-12-18T04:27:31;102132.41;;;-0.28;39.29
70690;BME280;58267;51.156;17.044;2022-12-18T04:29:56;102137.91;;;-0.59;39.64
70690;BME280;58267;51.156;17.044;2022-12-18T04:32:22;102139.13;;;-0.54;39.42
70690;BME280;58267;51.156;17.044;2022-12-18T04:34:48;102138.90;;;-0.99;40.33
70690;BME280;58267;51.156;17.044;2022-12-18T04:37:13;102135.91;;;-1.16;40.30
70690;BME280;58267;51.156;17.044;2022-12-18T04:39:39;102138.36;;;-1.14;40.59
70690;BME280;58267;51.156;17.044;2022-12-18T04:42:05;102140.99;;;-0.82;39.89
70690;BME280;58267;51.156;17.044;2022-12-18T04:44:30;102144.32;;;-0.49;39.71
70690;BME280;58267;51.156;17.044;2022-12-18T04:46:55;102154.66;;;-0.89;40.22
70690;BME280;58267;51.156;17.044;2022-12-18T04:49:21;102156.23;;;-0.82;40.09
70690;BME280;58267;51.156;17.044;2022-12-18T04:51:47;102157.30;;;-0.75;39.63
70690;BME280;58267;51.156;17.044;2022-12-18T04:54:12;102159.51;;;-0.32;39.35
70690;BME280;58267;51.156;17.044;2022-12-18T04:56:38;102161.73;;;-0.41;38.90
70690;BME280;58267;51.156;17.044;2022-12-18T04:59:03;102165.02;;;-0.55;38.91
70690;BME280;58267;51.156;17.044;2022-12-18T05:01:29;102165.66;;;-0.89;39.20
70690;BME280;58267;51.156;17.044;2022-12-18T05:03:54;102169.76;;;-0.35;39.09
70690;BME280;58267;51.156;17.044;2022-12-18T05:06:20;102169.24;;;0.21;38.83
70690;BME280;58267;51.156;17.044;2022-12-18T05:08:45;102177.01;;;-0.23;38.58
70690;BME280;58267;51.156;17.044;2022-12-18T05:11:13;102175.39;;;-0.18;38.47
70690;BME280;58267;51.156;17.044;2022-12-18T05:13:36;102174.69;;;-0.09;38.43
70690;BME280;58267;51.156;17.044;2022-12-18T05:16:02;102175.61;;;0.02;38.39
70690;BME280;58267;51.156;17.044;2022-12-18T05:18:27;102172.23;;;0.24;38.19
70690;BME280;58267;51.156;17.044;2022-12-18T05:20:53;102176.49;;;0.02;37.98
70690;BME280;58267;51.156;17.044;2022-12-18T05:23:19;102174.62;;;-0.03;38.04
70690;BME280;58267;51.156;17.044;2022-12-18T05:25:47;102174.86;;;-0.01;37.74
70690;BME280;58267;51.156;17.044;2022-12-18T05:28:09;102176.06;;;0.02;37.78
70690;BME280;58267;51.156;17.044;2022-12-18T05:30:34;102179.26;;;0.11;37.77
70690;BME280;58267;51.156;17.044;2022-12-18T05:33:00;102179.15;;;0.38;37.70
70690;BME280;58267;51.156;17.044;2022-12-18T05:35:25;102181.17;;;0.21;37.65
70690;BME280;58267;51.156;17.044;2022-12-18T05:37:51;102183.75;;;0.28;37.64
70690;BME280;58267;51.156;17.044;2022-12-18T05:40:16;102182.87;;;0.34;37.56
70690;BME280;58267;51.156;17.044;2022-12-18T05:42:41;102182.94;;;0.11;37.73
70690;BME280;58267;51.156;17.044;2022-12-18T05:45:07;102185.05;;;0.27;37.60
70690;BME280;58267;51.156;17.044;2022-12-18T05:47:32;102189.37;;;0.40;37.69
70690;BME280;58267;51.156;17.044;2022-12-18T05:49:58;102195.08;;;-0.21;37.86
70690;BME280;58267;51.156;17.044;2022-12-18T05:52:24;102205.41;;;0.03;37.61
70690;BME280;58267;51.156;17.044;2022-12-18T05:54:49;102206.75;;;-0.51;38.13
70690;BME280;58267;51.156;17.044;2022-12-18T05:57:14;102208.66;;;-0.67;38.13
70690;BME280;58267;51.156;17.044;2022-12-18T05:59:39;102219.91;;;-0.73;38.41
70690;BME280;58267;51.156;17.044;2022-12-18T06:02:05;102225.36;;;-0.72;38.50
70690;BME280;58267;51.156;17.044;2022-12-18T06:04:31;102221.98;;;-0.50;38.16
70690;BME280;58267;51.156;17.044;2022-12-18T06:06:57;102221.43;;;-0.10;37.97
70690;BME280;58267;51.156;17.044;2022-12-18T06:09:23;102220.37;;;0.04;37.66
70690;BME280;58267;51.156;17.044;2022-12-18T06:11:48;102227.62;;;-0.08;37.44
70690;BME280;58267;51.156;17.044;2022-12-18T06:14:13;102230.84;;;0.00;37.26
70690;BME280;58267;51.156;17.044;2022-12-18T06:16:39;102234.91;;;-0.01;37.14
70690;BME280;58267;51.156;17.044;2022-12-18T06:19:05;102238.67;;;-0.10;36.97
70690;BME280;58267;51.156;17.044;2022-12-18T06:21:31;102242.92;;;-0.01;37.01
70690;BME280;58267;51.156;17.044;2022-12-18T06:23:56;102243.70;;;0.00;36.91
70690;BME280;58267;51.156;17.044;2022-12-18T06:26:21;102247.08;;;-0.11;37.19
70690;BME280;58267;51.156;17.044;2022-12-18T06:28:47;102251.08;;;0.05;37.09
70690;BME280;58267;51.156;17.044;2022-12-18T06:31:12;102251.63;;;-0.01;36.83
70690;BME280;58267;51.156;17.044;2022-12-18T06:33:38;102255.26;;;0.08;36.81
70690;BME280;58267;51.156;17.044;2022-12-18T06:36:05;102259.47;;;0.11;36.77
70690;BME280;58267;51.156;17.044;2022-12-18T06:38:29;102267.28;;;-0.23;36.88
70690;BME280;58267;51.156;17.044;2022-12-18T06:40:55;102271.12;;;-0.20;37.05
70690;BME280;58267;51.156;17.044;2022-12-18T06:43:20;102271.54;;;-0.27;37.01
70690;BME280;58267;51.156;17.044;2022-12-18T06:45:46;102274.31;;;-0.12;36.74
70690;BME280;58267;51.156;17.044;2022-12-18T06:48:11;102275.53;;;-0.80;37.05
70690;BME280;58267;51.156;17.044;2022-12-18T06:50:36;102273.46;;;-0.63;37.01
70690;BME280;58267;51.156;17.044;2022-12-18T06:53:02;102278.49;;;-0.57;37.08
70690;BME280;58267;51.156;17.044;2022-12-18T06:55:27;102287.89;;;-0.43;37.15
70690;BME280;58267;51.156;17.044;2022-12-18T06:57:52;102289.47;;;-0.13;36.90
70690;BME280;58267;51.156;17.044;2022-12-18T07:00:18;102292.73;;;-0.30;36.75
70690;BME280;58267;51.156;17.044;2022-12-18T07:02:43;102287.92;;;-0.19;36.74
70690;BME280;58267;51.156;17.044;2022-12-18T07:05:08;102284.56;;;-0.06;36.86
70690;BME280;58267;51.156;17.044;2022-12-18T07:07:34;102285.42;;;-0.12;36.89
70690;BME280;58267;51.156;17.044;2022-12-18T07:09:58;102283.66;;;-0.07;36.73
70690;BME280;58267;51.156;17.044;2022-12-18T07:12:24;102287.70;;;-0.12;36.73
70690;BME280;58267;51.156;17.044;2022-12-18T07:14:49;102293.31;;;0.24;36.66
70690;BME280;58267;51.156;17.044;2022-12-18T07:17:15;102298.95;;;-0.01;36.64
70690;BME280;58267;51.156;17.044;2022-12-18T07:19:40;102302.27;;;0.05;36.68
70690;BME280;58267;51.156;17.044;2022-12-18T07:22:05;102304.17;;;0.04;36.74
70690;BME280;58267;51.156;17.044;2022-12-18T07:24:32;102303.68;;;-0.07;36.76
70690;BME280;58267;51.156;17.044;2022-12-18T07:26:56;102298.86;;;0.06;36.66
70690;BME280;58267;51.156;17.044;2022-12-18T07:29:21;102307.76;;;-0.23;36.72
70690;BME280;58267;51.156;17.044;2022-12-18T07:31:46;102312.52;;;-0.07;36.74
70690;BME280;58267;51.156;17.044;2022-12-18T07:34:13;102312.89;;;-0.23;36.61
70690;BME280;58267;51.156;17.044;2022-12-18T07:36:37;102316.17;;;-0.24;36.57
70690;BME280;58267;51.156;17.044;2022-12-18T07:39:03;102325.55;;;-0.39;36.82
70690;BME280;58267;51.156;17.044;2022-12-18T07:41:28;102329.96;;;-0.26;36.98
70690;BME280;58267;51.156;17.044;2022-12-18T07:43:54;102329.54;;;-0.35;36.90
70690;BME280;58267;51.156;17.044;2022-12-18T07:46:19;102329.57;;;-0.36;36.96
70690;BME280;58267;51.156;17.044;2022-12-18T07:48:45;102331.54;;;0.03;36.92
70690;BME280;58267;51.156;17.044;2022-12-18T07:51:10;102330.33;;;-0.28;36.97
70690;BME280;58267;51.156;17.044;2022-12-18T07:53:35;102328.96;;;-0.37;36.76
70690;BME280;58267;51.156;17.044;2022-12-18T07:56:03;102327.26;;;-0.15;36.74
70690;BME280;58267;51.156;17.044;2022-12-18T07:58:25;102326.65;;;0.24;36.69
70690;BME280;58267;51.156;17.044;2022-12-18T08:00:51;102328.54;;;0.06;36.59
70690;BME280;58267;51.156;17.044;2022-12-18T08:03:16;102335.68;;;0.23;36.43
70690;BME280;58267;51.156;17.044;2022-12-18T08:05:42;102340.97;;;0.22;36.47
70690;BME280;58267;51.156;17.044;2022-12-18T08:08:07;102349.49;;;0.31;36.41
70690;BME280;58267;51.156;17.044;2022-12-18T08:10:32;102350.20;;;0.28;36.35
70690;BME280;58267;51.156;17.044;2022-12-18T08:12:58;102351.89;;;0.24;36.39
70690;BME280;58267;51.156;17.044;2022-12-18T08:15:24;102357.00;;;0.22;36.46
70690;BME280;58267;51.156;17.044;2022-12-18T08:17:49;102354.16;;;0.30;36.45
70690;BME280;58267;51.156;17.044;2022-12-18T08:20:14;102357.53;;;0.18;36.47
70690;BME280;58267;51.156;17.044;2022-12-18T08:22:39;102361.12;;;0.12;36.43
70690;BME280;58267;51.156;17.044;2022-12-18T08:25:06;102370.36;;;0.45;36.34
70690;BME280;58267;51.156;17.044;2022-12-18T08:27:30;102372.74;;;-0.20;36.48
70690;BME280;58267;51.156;17.044;2022-12-18T08:29:58;102379.11;;;-0.28;36.61
70690;BME280;58267;51.156;17.044;2022-12-18T08:32:23;102386.57;;;-0.03;36.56
70690;BME280;58267;51.156;17.044;2022-12-18T08:34:50;102386.39;;;-0.04;36.25
70690;BME280;58267;51.156;17.044;2022-12-18T08:37:16;102389.04;;;-0.18;36.31
70690;BME280;58267;51.156;17.044;2022-12-18T08:39:41;102388.02;;;-0.00;36.21
70690;BME280;58267;51.156;17.044;2022-12-18T08:42:06;102391.51;;;-0.26;36.13
70690;BME280;58267;51.156;17.044;2022-12-18T08:44:32;102390.38;;;0.05;36.10
70690;BME280;58267;51.156;17.044;2022-12-18T08:46:57;102393.43;;;0.13;35.85
70690;BME280;58267;51.156;17.044;2022-12-18T08:49:23;102395.49;;;0.08;35.86
70690;BME280;58267;51.156;17.044;2022-12-18T08:51:48;102399.03;;;0.26;35.78
70690;BME280;58267;51.156;17.044;2022-12-18T08:54:15;102401.44;;;0.27;35.72
70690;BME280;58267;51.156;17.044;2022-12-18T08:56:41;102403.52;;;0.53;35.84
70690;BME280;58267;51.156;17.044;2022-12-18T08:59:06;102400.37;;;0.29;35.55
70690;BME280;58267;51.156;17.044;2022-12-18T09:01:32;102399.55;;;0.33;35.46
70690;BME280;58267;51.156;17.044;2022-12-18T09:03:56;102399.48;;;-0.29;35.63
70690;BME280;58267;51.156;17.044;2022-12-18T09:06:23;102395.71;;;-0.37;35.90
70690;BME280;58267;51.156;17.044;2022-12-18T09:08:48;102394.70;;;-0.50;36.29
70690;BME280;58267;51.156;17.044;2022-12-18T09:11:18;102385.85;;;-0.32;36.09
70690;BME280;58267;51.156;17.044;2022-12-18T09:13:39;102375.59;;;0.16;36.00
70690;BME280;58267;51.156;17.044;2022-12-18T09:16:05;102370.68;;;-0.03;35.96
70690;BME280;58267;51.156;17.044;2022-12-18T09:18:30;102365.56;;;0.18;35.97
70690;BME280;58267;51.156;17.044;2022-12-18T09:20:56;102361.14;;;0.05;35.71
70690;BME280;58267;51.156;17.044;2022-12-18T09:23:22;102362.61;;;-0.10;35.61
70690;BME280;58267;51.156;17.044;2022-12-18T09:25:47;102358.23;;;0.18;35.58
70690;BME280;58267;51.156;17.044;2022-12-18T09:28:17;102351.24;;;0.70;35.39
70690;BME280;58267;51.156;17.044;2022-12-18T09:30:38;102347.17;;;0.53;35.30
70690;BME280;58267;51.156;17.044;2022-12-18T09:33:03;102347.30;;;0.60;35.33
70690;BME280;58267;51.156;17.044;2022-12-18T09:35:29;102342.46;;;0.83;35.11
70690;BME280;58267;51.156;17.044;2022-12-18T09:37:55;102337.38;;;0.35;35.10
70690;BME280;58267;51.156;17.044;2022-12-18T09:40:22;102337.86;;;0.51;35.21
70690;BME280;58267;51.156;17.044;2022-12-18T09:42:49;102338.00;;;0.49;35.07
70690;BME280;58267;51.156;17.044;2022-12-18T09:45:13;102332.58;;;0.51;35.01
70690;BME280;58267;51.156;17.044;2022-12-18T09:47:38;102332.72;;;0.47;35.05
70690;BME280;58267;51.156;17.044;2022-12-18T09:50:06;102334.00;;;0.93;34.95
70690;BME280;58267;51.156;17.044;2022-12-18T09:52:33;102332.15;;;0.28;35.77
70690;BME280;58267;51.156;17.044;2022-12-18T09:54:56;102332.30;;;0.15;36.35
70690;BME280;58267;51.156;17.044;2022-12-18T09:57:22;102328.98;;;0.33;35.87
70690;BME280;58267;51.156;17.044;2022-12-18T09:59:48;102332.56;;;0.47;35.75
70690;BME280;58267;51.156;17.044;2022-12-18T10:02:15;102334.00;;;0.43;35.67
70690;BME280;58267;51.156;17.044;2022-12-18T10:04:35;102329.56;;;0.20;35.43
70690;BME280;58267;51.156;17.044;2022-12-18T10:07:05;102337.90;;;0.63;35.48
70690;BME280;58267;51.156;17.044;2022-12-18T10:09:30;102339.22;;;0.84;35.27
70690;BME280;58267;51.156;17.044;2022-12-18T10:11:56;102339.10;;;0.75;35.19
70690;BME280;58267;51.156;17.044;2022-12-18T10:14:23;102341.10;;;0.61;35.33
70690;BME280;58267;51.156;17.044;2022-12-18T10:16:49;102348.56;;;0.29;35.17
70690;BME280;58267;51.156;17.044;2022-12-18T10:19:18;102349.95;;;0.32;35.17
70690;BME280;58267;51.156;17.044;2022-12-18T10:21:39;102347.30;;;0.55;35.26
70690;BME280;58267;51.156;17.044;2022-12-18T10:24:02;102352.41;;;0.67;35.31
70690;BME280;58267;51.156;17.044;2022-12-18T10:26:25;102358.97;;;0.52;35.54
70690;BME280;58267;51.156;17.044;2022-12-18T10:28:50;102360.42;;;0.45;35.26
70690;BME280;58267;51.156;17.044;2022-12-18T10:31:18;102354.04;;;0.47;35.49
70690;BME280;58267;51.156;17.044;2022-12-18T10:33:42;102346.75;;;0.38;35.21
70690;BME280;58267;51.156;17.044;2022-12-18T10:36:08;102347.48;;;0.47;34.89
70690;BME280;58267;51.156;17.044;2022-12-18T10:38:33;102350.11;;;0.46;35.39
70690;BME280;58267;51.156;17.044;2022-12-18T10:41:00;102350.25;;;1.03;35.05
70690;BME280;58267;51.156;17.044;2022-12-18T10:43:26;102347.01;;;0.39;34.93
70690;BME280;58267;51.156;17.044;2022-12-18T10:48:19;102348.20;;;0.55;35.21
70690;BME280;58267;51.156;17.044;2022-12-18T10:50:40;102347.84;;;0.47;35.06
70690;BME280;58267;51.156;17.044;2022-12-18T10:53:05;102347.58;;;0.74;35.05
70690;BME280;58267;51.156;17.044;2022-12-18T10:55:34;102349.13;;;0.27;35.03
70690;BME280;58267;51.156;17.044;2022-12-18T11:00:25;102354.08;;;0.74;35.11
70690;BME280;58267;51.156;17.044;2022-12-18T11:02:47;102357.24;;;0.54;35.19
70690;BME280;58267;51.156;17.044;2022-12-18T11:10:04;102354.13;;;0.36;35.16
70690;BME280;58267;51.156;17.044;2022-12-18T11:12:30;102360.12;;;0.37;35.25
70690;BME280;58267;51.156;17.044;2022-12-18T11:14:56;102368.26;;;0.45;35.40
70690;BME280;58267;51.156;17.044;2022-12-18T11:17:22;102369.70;;;0.52;35.38
70690;BME280;58267;51.156;17.044;2022-12-18T11:19:52;102374.03;;;0.68;35.20
70690;BME280;58267;51.156;17.044;2022-12-18T11:22:18;102376.66;;;0.40;35.20
70690;BME280;58267;51.156;17.044;2022-12-18T11:24:36;102379.41;;;0.85;35.25
70690;BME280;58267;51.156;17.044;2022-12-18T11:27:03;102388.41;;;0.55;35.82
70690;BME280;58267;51.156;17.044;2022-12-18T11:29:33;102388.32;;;0.64;35.64
70690;BME280;58267;51.156;17.044;2022-12-18T11:31:52;102379.98;;;0.90;35.08
70690;BME280;58267;51.156;17.044;2022-12-18T11:34:24;102376.30;;;0.52;35.33
70690;BME280;58267;51.156;17.044;2022-12-18T11:36:45;102374.58;;;0.60;35.52
70690;BME280;58267;51.156;17.044;2022-12-18T11:39:14;102369.69;;;0.57;35.29
70690;BME280;58267;51.156;17.044;2022-12-18T11:41:38;102363.24;;;0.62;35.08
70690;BME280;58267;51.156;17.044;2022-12-18T11:44:02;102355.31;;;0.31;35.19
70690;BME280;58267;51.156;17.044;2022-12-18T11:46:30;102353.06;;;0.53;35.28
70690;BME280;58267;51.156;17.044;2022-12-18T11:48:54;102352.75;;;0.82;35.24
70690;BME280;58267;51.156;17.044;2022-12-18T11:51:27;102347.41;;;0.49;35.11
70690;BME280;58267;51.156;17.044;2022-12-18T11:53:42;102342.49;;;0.63;35.23
70690;BME280;58267;51.156;17.044;2022-12-18T11:56:21;102341.89;;;0.60;35.55
70690;BME280;58267;51.156;17.044;2022-12-18T11:58:42;102339.98;;;0.02;35.83
70690;BME280;58267;51.156;17.044;2022-12-18T12:01:04;102342.20;;;0.46;35.58
70690;BME280;58267;51.156;17.044;2022-12-18T12:05:58;102346.88;;;0.66;35.37
70690;BME280;58267;51.156;17.044;2022-12-18T12:08:20;102347.50;;;0.51;35.22
70690;BME280;58267;51.156;17.044;2022-12-18T12:10:48;102346.94;;;0.38;35.67
70690;BME280;58267;51.156;17.044;2022-12-18T12:13:17;102341.53;;;0.62;35.74
70690;BME280;58267;51.156;17.044;2022-12-18T12:15:37;102337.10;;;0.09;35.60
70690;BME280;58267;51.156;17.044;2022-12-18T12:18:00;102341.28;;;-0.26;36.83
70690;BME280;58267;51.156;17.044;2022-12-18T12:20:23;102345.36;;;-0.05;36.57
70690;BME280;58267;51.156;17.044;2022-12-18T12:22:52;102341.24;;;0.30;36.16
70690;BME280;58267;51.156;17.044;2022-12-18T12:25:20;102333.90;;;0.51;35.82
70690;BME280;58267;51.156;17.044;2022-12-18T12:27:42;102340.44;;;0.20;35.70
70690;BME280;58267;51.156;17.044;2022-12-18T12:30:06;102345.24;;;0.18;35.46
70690;BME280;58267;51.156;17.044;2022-12-18T12:32:40;102342.97;;;0.70;35.28
70690;BME280;58267;51.156;17.044;2022-12-18T12:35:03;102339.91;;;0.48;35.43
70690;BME280;58267;51.156;17.044;2022-12-18T12:37:27;102342.36;;;0.28;35.51
70690;BME280;58267;51.156;17.044;2022-12-18T12:39:46;102341.08;;;0.21;35.43
70690;BME280;58267;51.156;17.044;2022-12-18T12:42:15;102341.42;;;0.59;35.22
70690;BME280;58267;51.156;17.044;2022-12-18T12:44:39;102340.63;;;0.12;35.61